<?xml version="1.0" encoding="UTF-8" standalone="no" ?>
<gpx xmlns="http://www.topografix.com/GPX/1/1" xmlns:xsi="http://www.w3.org/2001/XMLSchema-instance" xsi:schemaLocation="http://www.topografix.com/GPX/1/1 http://www.topografix.com/GPX/1/1/gpx.xsd" version="1.1" creator="VisuGPX - https://www.visugpx.com">
  <metadata>
    <name>Course à pied dans l'après-midi</name>
  </metadata>
  <trk>
    <name><![CDATA[Course à pied dans l'après-midi_1]]></name>
    <trkseg>
      <trkpt lat="46.83453" lon="6.40076">
        <ele>1085.3</ele>
        <time>2024-01-10T15:57:13Z</time>
      </trkpt>
      <trkpt lat="46.83454" lon="6.401">
        <ele>1084.8</ele>
        <time>2024-01-10T15:57:26Z</time>
      </trkpt>
      <trkpt lat="46.83462" lon="6.40109">
        <ele>1084.8</ele>
        <time>2024-01-10T15:57:31Z</time>
      </trkpt>
      <trkpt lat="46.8348" lon="6.40124">
        <ele>1085.7</ele>
        <time>2024-01-10T15:57:37Z</time>
      </trkpt>
      <trkpt lat="46.83478" lon="6.40154">
        <ele>1084.9</ele>
        <time>2024-01-10T15:57:44Z</time>
      </trkpt>
      <trkpt lat="46.83481" lon="6.40182">
        <ele>1084.1</ele>
        <time>2024-01-10T15:57:51Z</time>
      </trkpt>
      <trkpt lat="46.83482" lon="6.40203">
        <ele>1084.3</ele>
        <time>2024-01-10T15:57:57Z</time>
      </trkpt>
      <trkpt lat="46.83484" lon="6.40203">
        <ele>1084.3</ele>
        <time>2024-01-10T15:57:59Z</time>
      </trkpt>
      <trkpt lat="46.83503" lon="6.40205">
        <ele>1084.3</ele>
        <time>2024-01-10T15:58:06Z</time>
      </trkpt>
      <trkpt lat="46.83521" lon="6.40209">
        <ele>1084.2</ele>
        <time>2024-01-10T15:58:11Z</time>
      </trkpt>
      <trkpt lat="46.83535" lon="6.40195">
        <ele>1084</ele>
        <time>2024-01-10T15:58:18Z</time>
      </trkpt>
      <trkpt lat="46.83541" lon="6.4017">
        <ele>1084.3</ele>
        <time>2024-01-10T15:58:24Z</time>
      </trkpt>
      <trkpt lat="46.83553" lon="6.40147">
        <ele>1084.1</ele>
        <time>2024-01-10T15:58:31Z</time>
      </trkpt>
      <trkpt lat="46.83572" lon="6.40143">
        <ele>1083.8</ele>
        <time>2024-01-10T15:58:37Z</time>
      </trkpt>
      <trkpt lat="46.83591" lon="6.40141">
        <ele>1083.6</ele>
        <time>2024-01-10T15:58:43Z</time>
      </trkpt>
      <trkpt lat="46.83609" lon="6.40141">
        <ele>1083.5</ele>
        <time>2024-01-10T15:58:48Z</time>
      </trkpt>
      <trkpt lat="46.8363" lon="6.40135">
        <ele>1083.5</ele>
        <time>2024-01-10T15:58:53Z</time>
      </trkpt>
      <trkpt lat="46.83648" lon="6.40139">
        <ele>1083.3</ele>
        <time>2024-01-10T15:58:58Z</time>
      </trkpt>
      <trkpt lat="46.83666" lon="6.40139">
        <ele>1083.1</ele>
        <time>2024-01-10T15:59:04Z</time>
      </trkpt>
      <trkpt lat="46.83686" lon="6.40135">
        <ele>1083</ele>
        <time>2024-01-10T15:59:11Z</time>
      </trkpt>
      <trkpt lat="46.83704" lon="6.40131">
        <ele>1082.9</ele>
        <time>2024-01-10T15:59:17Z</time>
      </trkpt>
      <trkpt lat="46.83724" lon="6.40129">
        <ele>1082.8</ele>
        <time>2024-01-10T15:59:23Z</time>
      </trkpt>
      <trkpt lat="46.83742" lon="6.40126">
        <ele>1082.7</ele>
        <time>2024-01-10T15:59:29Z</time>
      </trkpt>
      <trkpt lat="46.83762" lon="6.40128">
        <ele>1082.6</ele>
        <time>2024-01-10T15:59:36Z</time>
      </trkpt>
      <trkpt lat="46.83782" lon="6.40126">
        <ele>1082.6</ele>
        <time>2024-01-10T15:59:43Z</time>
      </trkpt>
      <trkpt lat="46.83801" lon="6.40124">
        <ele>1082.6</ele>
        <time>2024-01-10T15:59:49Z</time>
      </trkpt>
      <trkpt lat="46.83805" lon="6.40123">
        <ele>1082.7</ele>
        <time>2024-01-10T15:59:53Z</time>
      </trkpt>
      <trkpt lat="46.83823" lon="6.4012">
        <ele>1082.8</ele>
        <time>2024-01-10T16:00:02Z</time>
      </trkpt>
      <trkpt lat="46.83843" lon="6.40118">
        <ele>1082.9</ele>
        <time>2024-01-10T16:00:10Z</time>
      </trkpt>
      <trkpt lat="46.83862" lon="6.40115">
        <ele>1083</ele>
        <time>2024-01-10T16:00:18Z</time>
      </trkpt>
      <trkpt lat="46.83883" lon="6.40113">
        <ele>1083.1</ele>
        <time>2024-01-10T16:00:27Z</time>
      </trkpt>
      <trkpt lat="46.83902" lon="6.40112">
        <ele>1083.2</ele>
        <time>2024-01-10T16:00:34Z</time>
      </trkpt>
      <trkpt lat="46.83921" lon="6.40109">
        <ele>1083.3</ele>
        <time>2024-01-10T16:00:41Z</time>
      </trkpt>
      <trkpt lat="46.83939" lon="6.40105">
        <ele>1083.5</ele>
        <time>2024-01-10T16:00:48Z</time>
      </trkpt>
      <trkpt lat="46.83958" lon="6.40101">
        <ele>1083.8</ele>
        <time>2024-01-10T16:00:55Z</time>
      </trkpt>
      <trkpt lat="46.83976" lon="6.40096">
        <ele>1084.1</ele>
        <time>2024-01-10T16:01:02Z</time>
      </trkpt>
      <trkpt lat="46.8398" lon="6.40095">
        <ele>1084.2</ele>
        <time>2024-01-10T16:01:04Z</time>
      </trkpt>
      <trkpt lat="46.83982" lon="6.40099">
        <ele>1084.3</ele>
        <time>2024-01-10T16:01:06Z</time>
      </trkpt>
      <trkpt lat="46.83977" lon="6.40127">
        <ele>1084.8</ele>
        <time>2024-01-10T16:01:13Z</time>
      </trkpt>
      <trkpt lat="46.83969" lon="6.40155">
        <ele>1085.3</ele>
        <time>2024-01-10T16:01:21Z</time>
      </trkpt>
      <trkpt lat="46.83962" lon="6.40182">
        <ele>1085.8</ele>
        <time>2024-01-10T16:01:29Z</time>
      </trkpt>
      <trkpt lat="46.83954" lon="6.4021">
        <ele>1086.4</ele>
        <time>2024-01-10T16:01:37Z</time>
      </trkpt>
      <trkpt lat="46.83946" lon="6.40236">
        <ele>1086.8</ele>
        <time>2024-01-10T16:01:44Z</time>
      </trkpt>
      <trkpt lat="46.8394" lon="6.40261">
        <ele>1087.2</ele>
        <time>2024-01-10T16:01:51Z</time>
      </trkpt>
      <trkpt lat="46.83935" lon="6.40288">
        <ele>1087.7</ele>
        <time>2024-01-10T16:01:58Z</time>
      </trkpt>
      <trkpt lat="46.83932" lon="6.40316">
        <ele>1088.3</ele>
        <time>2024-01-10T16:02:05Z</time>
      </trkpt>
      <trkpt lat="46.8393" lon="6.40344">
        <ele>1088.9</ele>
        <time>2024-01-10T16:02:12Z</time>
      </trkpt>
      <trkpt lat="46.83928" lon="6.40373">
        <ele>1089.1</ele>
        <time>2024-01-10T16:02:19Z</time>
      </trkpt>
      <trkpt lat="46.83925" lon="6.40403">
        <ele>1089.2</ele>
        <time>2024-01-10T16:02:26Z</time>
      </trkpt>
      <trkpt lat="46.83922" lon="6.4043">
        <ele>1089.5</ele>
        <time>2024-01-10T16:02:33Z</time>
      </trkpt>
      <trkpt lat="46.83918" lon="6.4045">
        <ele>1089.9</ele>
        <time>2024-01-10T16:02:39Z</time>
      </trkpt>
      <trkpt lat="46.83937" lon="6.40454">
        <ele>1090.4</ele>
        <time>2024-01-10T16:02:47Z</time>
      </trkpt>
      <trkpt lat="46.83955" lon="6.40456">
        <ele>1090.8</ele>
        <time>2024-01-10T16:02:54Z</time>
      </trkpt>
      <trkpt lat="46.83971" lon="6.40472">
        <ele>1091.2</ele>
        <time>2024-01-10T16:03:03Z</time>
      </trkpt>
      <trkpt lat="46.83987" lon="6.40484">
        <ele>1091.5</ele>
        <time>2024-01-10T16:03:11Z</time>
      </trkpt>
      <trkpt lat="46.84004" lon="6.40493">
        <ele>1091.9</ele>
        <time>2024-01-10T16:03:19Z</time>
      </trkpt>
      <trkpt lat="46.84022" lon="6.40504">
        <ele>1092.4</ele>
        <time>2024-01-10T16:03:29Z</time>
      </trkpt>
      <trkpt lat="46.84039" lon="6.40517">
        <ele>1093</ele>
        <time>2024-01-10T16:03:39Z</time>
      </trkpt>
      <trkpt lat="46.84055" lon="6.40531">
        <ele>1093.6</ele>
        <time>2024-01-10T16:03:50Z</time>
      </trkpt>
      <trkpt lat="46.84071" lon="6.40543">
        <ele>1094</ele>
        <time>2024-01-10T16:03:59Z</time>
      </trkpt>
      <trkpt lat="46.84088" lon="6.40557">
        <ele>1094.4</ele>
        <time>2024-01-10T16:04:08Z</time>
      </trkpt>
      <trkpt lat="46.84106" lon="6.4057">
        <ele>1095.1</ele>
        <time>2024-01-10T16:04:17Z</time>
      </trkpt>
      <trkpt lat="46.84125" lon="6.40581">
        <ele>1095.8</ele>
        <time>2024-01-10T16:04:26Z</time>
      </trkpt>
      <trkpt lat="46.84143" lon="6.40584">
        <ele>1096.3</ele>
        <time>2024-01-10T16:04:35Z</time>
      </trkpt>
      <trkpt lat="46.84163" lon="6.40578">
        <ele>1096.6</ele>
        <time>2024-01-10T16:04:44Z</time>
      </trkpt>
      <trkpt lat="46.84182" lon="6.40573">
        <ele>1096.9</ele>
        <time>2024-01-10T16:04:53Z</time>
      </trkpt>
      <trkpt lat="46.842" lon="6.40567">
        <ele>1097.3</ele>
        <time>2024-01-10T16:05:01Z</time>
      </trkpt>
      <trkpt lat="46.84218" lon="6.40566">
        <ele>1097.7</ele>
        <time>2024-01-10T16:05:10Z</time>
      </trkpt>
      <trkpt lat="46.84236" lon="6.40556">
        <ele>1098.1</ele>
        <time>2024-01-10T16:05:19Z</time>
      </trkpt>
      <trkpt lat="46.84252" lon="6.40544">
        <ele>1098.4</ele>
        <time>2024-01-10T16:05:27Z</time>
      </trkpt>
      <trkpt lat="46.84271" lon="6.40536">
        <ele>1098.8</ele>
        <time>2024-01-10T16:05:35Z</time>
      </trkpt>
      <trkpt lat="46.8429" lon="6.40538">
        <ele>1099.2</ele>
        <time>2024-01-10T16:05:43Z</time>
      </trkpt>
      <trkpt lat="46.8431" lon="6.40541">
        <ele>1099.5</ele>
        <time>2024-01-10T16:05:51Z</time>
      </trkpt>
      <trkpt lat="46.8433" lon="6.40544">
        <ele>1099.8</ele>
        <time>2024-01-10T16:06:00Z</time>
      </trkpt>
      <trkpt lat="46.84347" lon="6.40557">
        <ele>1100</ele>
        <time>2024-01-10T16:06:08Z</time>
      </trkpt>
      <trkpt lat="46.84355" lon="6.40584">
        <ele>1100.2</ele>
        <time>2024-01-10T16:06:16Z</time>
      </trkpt>
      <trkpt lat="46.84364" lon="6.4061">
        <ele>1100.3</ele>
        <time>2024-01-10T16:06:24Z</time>
      </trkpt>
      <trkpt lat="46.84374" lon="6.40634">
        <ele>1100.5</ele>
        <time>2024-01-10T16:06:31Z</time>
      </trkpt>
      <trkpt lat="46.84386" lon="6.40657">
        <ele>1100.9</ele>
        <time>2024-01-10T16:06:39Z</time>
      </trkpt>
      <trkpt lat="46.84397" lon="6.40681">
        <ele>1101.4</ele>
        <time>2024-01-10T16:06:47Z</time>
      </trkpt>
      <trkpt lat="46.8441" lon="6.40699">
        <ele>1102</ele>
        <time>2024-01-10T16:06:55Z</time>
      </trkpt>
      <trkpt lat="46.84424" lon="6.40719">
        <ele>1102.8</ele>
        <time>2024-01-10T16:07:04Z</time>
      </trkpt>
      <trkpt lat="46.84438" lon="6.40737">
        <ele>1103.7</ele>
        <time>2024-01-10T16:07:12Z</time>
      </trkpt>
      <trkpt lat="46.84453" lon="6.40754">
        <ele>1104.6</ele>
        <time>2024-01-10T16:07:21Z</time>
      </trkpt>
      <trkpt lat="46.84468" lon="6.40772">
        <ele>1105.6</ele>
        <time>2024-01-10T16:07:29Z</time>
      </trkpt>
      <trkpt lat="46.84482" lon="6.40792">
        <ele>1106.6</ele>
        <time>2024-01-10T16:07:39Z</time>
      </trkpt>
      <trkpt lat="46.84496" lon="6.4081">
        <ele>1107.4</ele>
        <time>2024-01-10T16:07:48Z</time>
      </trkpt>
      <trkpt lat="46.8451" lon="6.40826">
        <ele>1108.1</ele>
        <time>2024-01-10T16:07:56Z</time>
      </trkpt>
      <trkpt lat="46.84526" lon="6.40841">
        <ele>1108.9</ele>
        <time>2024-01-10T16:08:04Z</time>
      </trkpt>
      <trkpt lat="46.84542" lon="6.40859">
        <ele>1109.7</ele>
        <time>2024-01-10T16:08:14Z</time>
      </trkpt>
      <trkpt lat="46.84556" lon="6.40878">
        <ele>1110.5</ele>
        <time>2024-01-10T16:08:23Z</time>
      </trkpt>
      <trkpt lat="46.84572" lon="6.40892">
        <ele>1111.3</ele>
        <time>2024-01-10T16:08:32Z</time>
      </trkpt>
      <trkpt lat="46.8459" lon="6.40907">
        <ele>1111.9</ele>
        <time>2024-01-10T16:08:40Z</time>
      </trkpt>
      <trkpt lat="46.84606" lon="6.40922">
        <ele>1112.7</ele>
        <time>2024-01-10T16:08:48Z</time>
      </trkpt>
      <trkpt lat="46.84622" lon="6.40938">
        <ele>1113.4</ele>
        <time>2024-01-10T16:08:57Z</time>
      </trkpt>
      <trkpt lat="46.84639" lon="6.40952">
        <ele>1114.3</ele>
        <time>2024-01-10T16:09:06Z</time>
      </trkpt>
      <trkpt lat="46.84657" lon="6.40965">
        <ele>1115.5</ele>
        <time>2024-01-10T16:09:15Z</time>
      </trkpt>
      <trkpt lat="46.84674" lon="6.4098">
        <ele>1116.8</ele>
        <time>2024-01-10T16:09:24Z</time>
      </trkpt>
      <trkpt lat="46.84688" lon="6.40997">
        <ele>1118</ele>
        <time>2024-01-10T16:09:33Z</time>
      </trkpt>
      <trkpt lat="46.84704" lon="6.41012">
        <ele>1119.3</ele>
        <time>2024-01-10T16:09:42Z</time>
      </trkpt>
      <trkpt lat="46.8472" lon="6.41029">
        <ele>1120.8</ele>
        <time>2024-01-10T16:09:51Z</time>
      </trkpt>
      <trkpt lat="46.84735" lon="6.41044">
        <ele>1122.5</ele>
        <time>2024-01-10T16:10:00Z</time>
      </trkpt>
      <trkpt lat="46.84751" lon="6.41062">
        <ele>1124.3</ele>
        <time>2024-01-10T16:10:09Z</time>
      </trkpt>
      <trkpt lat="46.84767" lon="6.41078">
        <ele>1125.8</ele>
        <time>2024-01-10T16:10:19Z</time>
      </trkpt>
      <trkpt lat="46.84783" lon="6.41095">
        <ele>1127.2</ele>
        <time>2024-01-10T16:10:28Z</time>
      </trkpt>
      <trkpt lat="46.84799" lon="6.41112">
        <ele>1128.4</ele>
        <time>2024-01-10T16:10:37Z</time>
      </trkpt>
      <trkpt lat="46.84812" lon="6.41132">
        <ele>1129.4</ele>
        <time>2024-01-10T16:10:47Z</time>
      </trkpt>
      <trkpt lat="46.84829" lon="6.41149">
        <ele>1130.5</ele>
        <time>2024-01-10T16:10:56Z</time>
      </trkpt>
      <trkpt lat="46.84841" lon="6.41172">
        <ele>1131.9</ele>
        <time>2024-01-10T16:11:06Z</time>
      </trkpt>
      <trkpt lat="46.84856" lon="6.41187">
        <ele>1133.2</ele>
        <time>2024-01-10T16:11:16Z</time>
      </trkpt>
      <trkpt lat="46.84874" lon="6.41196">
        <ele>1134.7</ele>
        <time>2024-01-10T16:11:27Z</time>
      </trkpt>
      <trkpt lat="46.84891" lon="6.41209">
        <ele>1136.3</ele>
        <time>2024-01-10T16:11:36Z</time>
      </trkpt>
      <trkpt lat="46.84906" lon="6.41222">
        <ele>1138</ele>
        <time>2024-01-10T16:11:46Z</time>
      </trkpt>
      <trkpt lat="46.84925" lon="6.41227">
        <ele>1139.9</ele>
        <time>2024-01-10T16:11:54Z</time>
      </trkpt>
      <trkpt lat="46.84945" lon="6.41226">
        <ele>1141.9</ele>
        <time>2024-01-10T16:12:02Z</time>
      </trkpt>
      <trkpt lat="46.84963" lon="6.41222">
        <ele>1143.9</ele>
        <time>2024-01-10T16:12:10Z</time>
      </trkpt>
      <trkpt lat="46.8498" lon="6.41213">
        <ele>1145.8</ele>
        <time>2024-01-10T16:12:18Z</time>
      </trkpt>
      <trkpt lat="46.84997" lon="6.41201">
        <ele>1147.4</ele>
        <time>2024-01-10T16:12:30Z</time>
      </trkpt>
      <trkpt lat="46.85016" lon="6.41193">
        <ele>1148.8</ele>
        <time>2024-01-10T16:12:38Z</time>
      </trkpt>
      <trkpt lat="46.85033" lon="6.41182">
        <ele>1150</ele>
        <time>2024-01-10T16:12:46Z</time>
      </trkpt>
      <trkpt lat="46.85051" lon="6.41172">
        <ele>1151.3</ele>
        <time>2024-01-10T16:12:54Z</time>
      </trkpt>
      <trkpt lat="46.85068" lon="6.41162">
        <ele>1152.7</ele>
        <time>2024-01-10T16:13:02Z</time>
      </trkpt>
      <trkpt lat="46.85084" lon="6.41145">
        <ele>1154.2</ele>
        <time>2024-01-10T16:13:11Z</time>
      </trkpt>
      <trkpt lat="46.851" lon="6.4113">
        <ele>1155.8</ele>
        <time>2024-01-10T16:13:20Z</time>
      </trkpt>
      <trkpt lat="46.85116" lon="6.41114">
        <ele>1157.3</ele>
        <time>2024-01-10T16:13:28Z</time>
      </trkpt>
      <trkpt lat="46.85133" lon="6.41098">
        <ele>1159.3</ele>
        <time>2024-01-10T16:13:36Z</time>
      </trkpt>
      <trkpt lat="46.85149" lon="6.41085">
        <ele>1161</ele>
        <time>2024-01-10T16:13:45Z</time>
      </trkpt>
      <trkpt lat="46.85168" lon="6.41075">
        <ele>1162.4</ele>
        <time>2024-01-10T16:13:53Z</time>
      </trkpt>
      <trkpt lat="46.85186" lon="6.41067">
        <ele>1164</ele>
        <time>2024-01-10T16:14:02Z</time>
      </trkpt>
      <trkpt lat="46.85204" lon="6.41054">
        <ele>1165.9</ele>
        <time>2024-01-10T16:14:13Z</time>
      </trkpt>
      <trkpt lat="46.85221" lon="6.41039">
        <ele>1167.5</ele>
        <time>2024-01-10T16:14:25Z</time>
      </trkpt>
      <trkpt lat="46.85239" lon="6.41028">
        <ele>1168.8</ele>
        <time>2024-01-10T16:14:33Z</time>
      </trkpt>
      <trkpt lat="46.85256" lon="6.41017">
        <ele>1170.2</ele>
        <time>2024-01-10T16:14:42Z</time>
      </trkpt>
      <trkpt lat="46.85273" lon="6.41009">
        <ele>1171.5</ele>
        <time>2024-01-10T16:14:51Z</time>
      </trkpt>
      <trkpt lat="46.85292" lon="6.41011">
        <ele>1172.7</ele>
        <time>2024-01-10T16:15:00Z</time>
      </trkpt>
      <trkpt lat="46.85311" lon="6.41025">
        <ele>1174.1</ele>
        <time>2024-01-10T16:15:10Z</time>
      </trkpt>
      <trkpt lat="46.85326" lon="6.4104">
        <ele>1175.3</ele>
        <time>2024-01-10T16:15:19Z</time>
      </trkpt>
      <trkpt lat="46.85344" lon="6.4105">
        <ele>1175.3</ele>
        <time>2024-01-10T16:15:26Z</time>
      </trkpt>
      <trkpt lat="46.8536" lon="6.41062">
        <ele>1174.7</ele>
        <time>2024-01-10T16:15:31Z</time>
      </trkpt>
      <trkpt lat="46.8538" lon="6.41072">
        <ele>1174.2</ele>
        <time>2024-01-10T16:15:38Z</time>
      </trkpt>
      <trkpt lat="46.85398" lon="6.4108">
        <ele>1174.4</ele>
        <time>2024-01-10T16:15:45Z</time>
      </trkpt>
      <trkpt lat="46.85418" lon="6.41083">
        <ele>1175</ele>
        <time>2024-01-10T16:15:52Z</time>
      </trkpt>
      <trkpt lat="46.85438" lon="6.41084">
        <ele>1175.4</ele>
        <time>2024-01-10T16:15:59Z</time>
      </trkpt>
      <trkpt lat="46.85457" lon="6.41081">
        <ele>1175.5</ele>
        <time>2024-01-10T16:16:06Z</time>
      </trkpt>
      <trkpt lat="46.85475" lon="6.41076">
        <ele>1175.5</ele>
        <time>2024-01-10T16:16:13Z</time>
      </trkpt>
      <trkpt lat="46.85494" lon="6.41071">
        <ele>1175.6</ele>
        <time>2024-01-10T16:16:20Z</time>
      </trkpt>
      <trkpt lat="46.85512" lon="6.41065">
        <ele>1175.7</ele>
        <time>2024-01-10T16:16:28Z</time>
      </trkpt>
      <trkpt lat="46.8552" lon="6.41057">
        <ele>1175.8</ele>
        <time>2024-01-10T16:16:34Z</time>
      </trkpt>
      <trkpt lat="46.85514" lon="6.41031">
        <ele>1175.8</ele>
        <time>2024-01-10T16:16:42Z</time>
      </trkpt>
      <trkpt lat="46.85503" lon="6.41009">
        <ele>1175.9</ele>
        <time>2024-01-10T16:16:49Z</time>
      </trkpt>
      <trkpt lat="46.85489" lon="6.40992">
        <ele>1176.5</ele>
        <time>2024-01-10T16:16:57Z</time>
      </trkpt>
      <trkpt lat="46.85487" lon="6.40963">
        <ele>1177.7</ele>
        <time>2024-01-10T16:17:06Z</time>
      </trkpt>
      <trkpt lat="46.8549" lon="6.40933">
        <ele>1178.7</ele>
        <time>2024-01-10T16:17:14Z</time>
      </trkpt>
      <trkpt lat="46.85493" lon="6.40907">
        <ele>1179.4</ele>
        <time>2024-01-10T16:17:24Z</time>
      </trkpt>
      <trkpt lat="46.85493" lon="6.40904">
        <ele>1179.4</ele>
        <time>2024-01-10T16:17:27Z</time>
      </trkpt>
      <trkpt lat="46.85499" lon="6.40892">
        <ele>1179.5</ele>
        <time>2024-01-10T16:17:37Z</time>
      </trkpt>
      <trkpt lat="46.85498" lon="6.409">
        <ele>1179.4</ele>
        <time>2024-01-10T16:19:33Z</time>
      </trkpt>
      <trkpt lat="46.85495" lon="6.40907">
        <ele>1179.2</ele>
        <time>2024-01-10T16:19:38Z</time>
      </trkpt>
      <trkpt lat="46.85493" lon="6.40902">
        <ele>1179.1</ele>
        <time>2024-01-10T16:19:41Z</time>
      </trkpt>
      <trkpt lat="46.8548" lon="6.40881">
        <ele>1178.4</ele>
        <time>2024-01-10T16:19:51Z</time>
      </trkpt>
      <trkpt lat="46.85465" lon="6.40865">
        <ele>1178</ele>
        <time>2024-01-10T16:19:59Z</time>
      </trkpt>
      <trkpt lat="46.85451" lon="6.40847">
        <ele>1178.2</ele>
        <time>2024-01-10T16:20:08Z</time>
      </trkpt>
      <trkpt lat="46.85438" lon="6.40828">
        <ele>1179</ele>
        <time>2024-01-10T16:20:17Z</time>
      </trkpt>
      <trkpt lat="46.85426" lon="6.40804">
        <ele>1180.2</ele>
        <time>2024-01-10T16:20:25Z</time>
      </trkpt>
      <trkpt lat="46.85419" lon="6.40778">
        <ele>1181.3</ele>
        <time>2024-01-10T16:20:32Z</time>
      </trkpt>
      <trkpt lat="46.85414" lon="6.40753">
        <ele>1182.5</ele>
        <time>2024-01-10T16:20:40Z</time>
      </trkpt>
      <trkpt lat="46.8541" lon="6.40727">
        <ele>1183.4</ele>
        <time>2024-01-10T16:20:48Z</time>
      </trkpt>
      <trkpt lat="46.85405" lon="6.40699">
        <ele>1184.3</ele>
        <time>2024-01-10T16:20:56Z</time>
      </trkpt>
      <trkpt lat="46.8539" lon="6.40681">
        <ele>1185</ele>
        <time>2024-01-10T16:21:04Z</time>
      </trkpt>
      <trkpt lat="46.8538" lon="6.40657">
        <ele>1185.2</ele>
        <time>2024-01-10T16:21:12Z</time>
      </trkpt>
      <trkpt lat="46.85372" lon="6.40633">
        <ele>1185.4</ele>
        <time>2024-01-10T16:21:19Z</time>
      </trkpt>
      <trkpt lat="46.85368" lon="6.40606">
        <ele>1185.6</ele>
        <time>2024-01-10T16:21:26Z</time>
      </trkpt>
      <trkpt lat="46.85366" lon="6.40577">
        <ele>1186.4</ele>
        <time>2024-01-10T16:21:34Z</time>
      </trkpt>
      <trkpt lat="46.85369" lon="6.40552">
        <ele>1187.5</ele>
        <time>2024-01-10T16:21:42Z</time>
      </trkpt>
      <trkpt lat="46.85376" lon="6.40525">
        <ele>1188.3</ele>
        <time>2024-01-10T16:21:50Z</time>
      </trkpt>
      <trkpt lat="46.85384" lon="6.40498">
        <ele>1188.8</ele>
        <time>2024-01-10T16:21:58Z</time>
      </trkpt>
      <trkpt lat="46.85396" lon="6.40476">
        <ele>1189.5</ele>
        <time>2024-01-10T16:22:07Z</time>
      </trkpt>
      <trkpt lat="46.8541" lon="6.40459">
        <ele>1190</ele>
        <time>2024-01-10T16:22:15Z</time>
      </trkpt>
      <trkpt lat="46.85422" lon="6.40438">
        <ele>1190.6</ele>
        <time>2024-01-10T16:22:23Z</time>
      </trkpt>
      <trkpt lat="46.85435" lon="6.40419">
        <ele>1191.1</ele>
        <time>2024-01-10T16:22:30Z</time>
      </trkpt>
      <trkpt lat="46.8544" lon="6.40389">
        <ele>1191.6</ele>
        <time>2024-01-10T16:22:37Z</time>
      </trkpt>
      <trkpt lat="46.85438" lon="6.40362">
        <ele>1192</ele>
        <time>2024-01-10T16:22:44Z</time>
      </trkpt>
      <trkpt lat="46.85438" lon="6.40331">
        <ele>1192.3</ele>
        <time>2024-01-10T16:22:51Z</time>
      </trkpt>
      <trkpt lat="46.85439" lon="6.40304">
        <ele>1192.5</ele>
        <time>2024-01-10T16:22:58Z</time>
      </trkpt>
      <trkpt lat="46.85441" lon="6.40275">
        <ele>1192.6</ele>
        <time>2024-01-10T16:23:06Z</time>
      </trkpt>
      <trkpt lat="46.85445" lon="6.40249">
        <ele>1192.7</ele>
        <time>2024-01-10T16:23:13Z</time>
      </trkpt>
      <trkpt lat="46.85452" lon="6.40221">
        <ele>1192.6</ele>
        <time>2024-01-10T16:23:21Z</time>
      </trkpt>
      <trkpt lat="46.85458" lon="6.40195">
        <ele>1192.6</ele>
        <time>2024-01-10T16:23:29Z</time>
      </trkpt>
      <trkpt lat="46.85465" lon="6.40169">
        <ele>1192.7</ele>
        <time>2024-01-10T16:23:37Z</time>
      </trkpt>
      <trkpt lat="46.85472" lon="6.40143">
        <ele>1192.9</ele>
        <time>2024-01-10T16:23:45Z</time>
      </trkpt>
      <trkpt lat="46.85481" lon="6.40115">
        <ele>1192.8</ele>
        <time>2024-01-10T16:23:53Z</time>
      </trkpt>
      <trkpt lat="46.85491" lon="6.40092">
        <ele>1192.3</ele>
        <time>2024-01-10T16:24:01Z</time>
      </trkpt>
      <trkpt lat="46.85499" lon="6.40067">
        <ele>1191.7</ele>
        <time>2024-01-10T16:24:08Z</time>
      </trkpt>
      <trkpt lat="46.85506" lon="6.40042">
        <ele>1191.4</ele>
        <time>2024-01-10T16:24:15Z</time>
      </trkpt>
      <trkpt lat="46.85516" lon="6.40017">
        <ele>1191.4</ele>
        <time>2024-01-10T16:24:25Z</time>
      </trkpt>
      <trkpt lat="46.8552" lon="6.3999">
        <ele>1191.5</ele>
        <time>2024-01-10T16:24:32Z</time>
      </trkpt>
      <trkpt lat="46.85528" lon="6.39964">
        <ele>1191.6</ele>
        <time>2024-01-10T16:24:39Z</time>
      </trkpt>
      <trkpt lat="46.8553" lon="6.39936">
        <ele>1191.2</ele>
        <time>2024-01-10T16:24:47Z</time>
      </trkpt>
      <trkpt lat="46.85522" lon="6.3991">
        <ele>1190.8</ele>
        <time>2024-01-10T16:24:55Z</time>
      </trkpt>
      <trkpt lat="46.85513" lon="6.39886">
        <ele>1190.5</ele>
        <time>2024-01-10T16:25:03Z</time>
      </trkpt>
      <trkpt lat="46.85504" lon="6.3986">
        <ele>1190.2</ele>
        <time>2024-01-10T16:25:11Z</time>
      </trkpt>
      <trkpt lat="46.85494" lon="6.39837">
        <ele>1189.5</ele>
        <time>2024-01-10T16:25:18Z</time>
      </trkpt>
      <trkpt lat="46.85488" lon="6.3981">
        <ele>1188.9</ele>
        <time>2024-01-10T16:25:26Z</time>
      </trkpt>
      <trkpt lat="46.85488" lon="6.39783">
        <ele>1188.2</ele>
        <time>2024-01-10T16:25:33Z</time>
      </trkpt>
      <trkpt lat="46.8549" lon="6.39753">
        <ele>1187.3</ele>
        <time>2024-01-10T16:25:39Z</time>
      </trkpt>
      <trkpt lat="46.85494" lon="6.39722">
        <ele>1186</ele>
        <time>2024-01-10T16:25:46Z</time>
      </trkpt>
      <trkpt lat="46.85495" lon="6.39694">
        <ele>1184.8</ele>
        <time>2024-01-10T16:25:52Z</time>
      </trkpt>
      <trkpt lat="46.85498" lon="6.39667">
        <ele>1183.6</ele>
        <time>2024-01-10T16:25:58Z</time>
      </trkpt>
      <trkpt lat="46.85501" lon="6.3964">
        <ele>1182.1</ele>
        <time>2024-01-10T16:26:05Z</time>
      </trkpt>
      <trkpt lat="46.85508" lon="6.39612">
        <ele>1180.4</ele>
        <time>2024-01-10T16:26:11Z</time>
      </trkpt>
      <trkpt lat="46.85511" lon="6.39583">
        <ele>1178.3</ele>
        <time>2024-01-10T16:26:17Z</time>
      </trkpt>
      <trkpt lat="46.85515" lon="6.39554">
        <ele>1176.2</ele>
        <time>2024-01-10T16:26:23Z</time>
      </trkpt>
      <trkpt lat="46.85522" lon="6.39528">
        <ele>1174.3</ele>
        <time>2024-01-10T16:26:29Z</time>
      </trkpt>
      <trkpt lat="46.8553" lon="6.39504">
        <ele>1172.4</ele>
        <time>2024-01-10T16:26:36Z</time>
      </trkpt>
      <trkpt lat="46.85539" lon="6.39477">
        <ele>1170.5</ele>
        <time>2024-01-10T16:26:44Z</time>
      </trkpt>
      <trkpt lat="46.85545" lon="6.39449">
        <ele>1168.9</ele>
        <time>2024-01-10T16:26:51Z</time>
      </trkpt>
      <trkpt lat="46.85548" lon="6.39434">
        <ele>1168.1</ele>
        <time>2024-01-10T16:26:55Z</time>
      </trkpt>
      <trkpt lat="46.85556" lon="6.3943">
        <ele>1167.3</ele>
        <time>2024-01-10T16:29:04Z</time>
      </trkpt>
      <trkpt lat="46.85555" lon="6.39428">
        <ele>1167.2</ele>
        <time>2024-01-10T16:29:05Z</time>
      </trkpt>
      <trkpt lat="46.85559" lon="6.39402">
        <ele>1165.6</ele>
        <time>2024-01-10T16:29:11Z</time>
      </trkpt>
      <trkpt lat="46.85569" lon="6.39375">
        <ele>1163.9</ele>
        <time>2024-01-10T16:29:17Z</time>
      </trkpt>
      <trkpt lat="46.85576" lon="6.39348">
        <ele>1162.5</ele>
        <time>2024-01-10T16:29:23Z</time>
      </trkpt>
      <trkpt lat="46.85581" lon="6.39323">
        <ele>1161.3</ele>
        <time>2024-01-10T16:29:29Z</time>
      </trkpt>
      <trkpt lat="46.8559" lon="6.39297">
        <ele>1160.3</ele>
        <time>2024-01-10T16:29:36Z</time>
      </trkpt>
      <trkpt lat="46.85605" lon="6.39299">
        <ele>1159.5</ele>
        <time>2024-01-10T16:29:44Z</time>
      </trkpt>
      <trkpt lat="46.85614" lon="6.39325">
        <ele>1157.9</ele>
        <time>2024-01-10T16:29:52Z</time>
      </trkpt>
      <trkpt lat="46.85626" lon="6.3935">
        <ele>1155.8</ele>
        <time>2024-01-10T16:29:58Z</time>
      </trkpt>
      <trkpt lat="46.85641" lon="6.39366">
        <ele>1154</ele>
        <time>2024-01-10T16:30:06Z</time>
      </trkpt>
      <trkpt lat="46.85658" lon="6.39356">
        <ele>1152.4</ele>
        <time>2024-01-10T16:30:14Z</time>
      </trkpt>
      <trkpt lat="46.85674" lon="6.3934">
        <ele>1150.6</ele>
        <time>2024-01-10T16:30:21Z</time>
      </trkpt>
      <trkpt lat="46.85678" lon="6.39314">
        <ele>1148.9</ele>
        <time>2024-01-10T16:30:28Z</time>
      </trkpt>
      <trkpt lat="46.85675" lon="6.39287">
        <ele>1147.2</ele>
        <time>2024-01-10T16:30:35Z</time>
      </trkpt>
      <trkpt lat="46.85677" lon="6.39259">
        <ele>1145.5</ele>
        <time>2024-01-10T16:30:41Z</time>
      </trkpt>
      <trkpt lat="46.85682" lon="6.3923">
        <ele>1143.7</ele>
        <time>2024-01-10T16:30:47Z</time>
      </trkpt>
      <trkpt lat="46.85687" lon="6.39204">
        <ele>1142.1</ele>
        <time>2024-01-10T16:30:53Z</time>
      </trkpt>
      <trkpt lat="46.85691" lon="6.39178">
        <ele>1140.5</ele>
        <time>2024-01-10T16:30:59Z</time>
      </trkpt>
      <trkpt lat="46.85695" lon="6.3915">
        <ele>1138.8</ele>
        <time>2024-01-10T16:31:05Z</time>
      </trkpt>
      <trkpt lat="46.85697" lon="6.3912">
        <ele>1137</ele>
        <time>2024-01-10T16:31:11Z</time>
      </trkpt>
      <trkpt lat="46.85701" lon="6.39089">
        <ele>1134.6</ele>
        <time>2024-01-10T16:31:17Z</time>
      </trkpt>
      <trkpt lat="46.85703" lon="6.39063">
        <ele>1132.5</ele>
        <time>2024-01-10T16:31:22Z</time>
      </trkpt>
      <trkpt lat="46.85709" lon="6.39036">
        <ele>1130.4</ele>
        <time>2024-01-10T16:31:27Z</time>
      </trkpt>
      <trkpt lat="46.85714" lon="6.39009">
        <ele>1128.5</ele>
        <time>2024-01-10T16:31:33Z</time>
      </trkpt>
      <trkpt lat="46.85719" lon="6.38983">
        <ele>1126.6</ele>
        <time>2024-01-10T16:31:39Z</time>
      </trkpt>
      <trkpt lat="46.8572" lon="6.38956">
        <ele>1124.5</ele>
        <time>2024-01-10T16:31:45Z</time>
      </trkpt>
      <trkpt lat="46.85724" lon="6.3893">
        <ele>1122.5</ele>
        <time>2024-01-10T16:31:52Z</time>
      </trkpt>
      <trkpt lat="46.85728" lon="6.38901">
        <ele>1120.4</ele>
        <time>2024-01-10T16:31:59Z</time>
      </trkpt>
      <trkpt lat="46.8573" lon="6.38871">
        <ele>1118.2</ele>
        <time>2024-01-10T16:32:06Z</time>
      </trkpt>
      <trkpt lat="46.85733" lon="6.38845">
        <ele>1116.3</ele>
        <time>2024-01-10T16:32:13Z</time>
      </trkpt>
      <trkpt lat="46.85737" lon="6.38816">
        <ele>1114.2</ele>
        <time>2024-01-10T16:32:21Z</time>
      </trkpt>
      <trkpt lat="46.85738" lon="6.38789">
        <ele>1112.2</ele>
        <time>2024-01-10T16:32:28Z</time>
      </trkpt>
      <trkpt lat="46.8574" lon="6.38762">
        <ele>1110.1</ele>
        <time>2024-01-10T16:32:35Z</time>
      </trkpt>
      <trkpt lat="46.85741" lon="6.38736">
        <ele>1107.9</ele>
        <time>2024-01-10T16:32:42Z</time>
      </trkpt>
      <trkpt lat="46.8574" lon="6.38709">
        <ele>1105.8</ele>
        <time>2024-01-10T16:32:48Z</time>
      </trkpt>
      <trkpt lat="46.85734" lon="6.38682">
        <ele>1103.8</ele>
        <time>2024-01-10T16:32:54Z</time>
      </trkpt>
      <trkpt lat="46.8572" lon="6.38661">
        <ele>1101.5</ele>
        <time>2024-01-10T16:33:02Z</time>
      </trkpt>
      <trkpt lat="46.85701" lon="6.3865">
        <ele>1099.1</ele>
        <time>2024-01-10T16:33:10Z</time>
      </trkpt>
      <trkpt lat="46.85683" lon="6.38638">
        <ele>1096.8</ele>
        <time>2024-01-10T16:33:17Z</time>
      </trkpt>
      <trkpt lat="46.85665" lon="6.38625">
        <ele>1094.6</ele>
        <time>2024-01-10T16:33:24Z</time>
      </trkpt>
      <trkpt lat="46.8565" lon="6.38609">
        <ele>1092.6</ele>
        <time>2024-01-10T16:33:31Z</time>
      </trkpt>
      <trkpt lat="46.85632" lon="6.38596">
        <ele>1091</ele>
        <time>2024-01-10T16:33:38Z</time>
      </trkpt>
      <trkpt lat="46.85613" lon="6.38585">
        <ele>1090.9</ele>
        <time>2024-01-10T16:33:46Z</time>
      </trkpt>
      <trkpt lat="46.85595" lon="6.38576">
        <ele>1091</ele>
        <time>2024-01-10T16:33:53Z</time>
      </trkpt>
      <trkpt lat="46.85576" lon="6.38573">
        <ele>1091.2</ele>
        <time>2024-01-10T16:34:01Z</time>
      </trkpt>
      <trkpt lat="46.85558" lon="6.38577">
        <ele>1091.2</ele>
        <time>2024-01-10T16:34:10Z</time>
      </trkpt>
      <trkpt lat="46.85544" lon="6.38576">
        <ele>1090.9</ele>
        <time>2024-01-10T16:34:20Z</time>
      </trkpt>
      <trkpt lat="46.85525" lon="6.38575">
        <ele>1090.6</ele>
        <time>2024-01-10T16:34:31Z</time>
      </trkpt>
      <trkpt lat="46.85506" lon="6.38573">
        <ele>1090.8</ele>
        <time>2024-01-10T16:34:42Z</time>
      </trkpt>
      <trkpt lat="46.85488" lon="6.38568">
        <ele>1091.8</ele>
        <time>2024-01-10T16:34:52Z</time>
      </trkpt>
      <trkpt lat="46.85471" lon="6.38576">
        <ele>1093.2</ele>
        <time>2024-01-10T16:35:03Z</time>
      </trkpt>
      <trkpt lat="46.85452" lon="6.38588">
        <ele>1094.5</ele>
        <time>2024-01-10T16:35:14Z</time>
      </trkpt>
      <trkpt lat="46.85436" lon="6.38606">
        <ele>1095.9</ele>
        <time>2024-01-10T16:35:23Z</time>
      </trkpt>
      <trkpt lat="46.85418" lon="6.3862">
        <ele>1097.6</ele>
        <time>2024-01-10T16:35:33Z</time>
      </trkpt>
      <trkpt lat="46.854" lon="6.38626">
        <ele>1098.3</ele>
        <time>2024-01-10T16:35:40Z</time>
      </trkpt>
      <trkpt lat="46.8538" lon="6.38626">
        <ele>1098.5</ele>
        <time>2024-01-10T16:35:48Z</time>
      </trkpt>
      <trkpt lat="46.85359" lon="6.38626">
        <ele>1098.5</ele>
        <time>2024-01-10T16:35:56Z</time>
      </trkpt>
      <trkpt lat="46.85339" lon="6.38631">
        <ele>1098.2</ele>
        <time>2024-01-10T16:36:03Z</time>
      </trkpt>
      <trkpt lat="46.85321" lon="6.3864">
        <ele>1098</ele>
        <time>2024-01-10T16:36:11Z</time>
      </trkpt>
      <trkpt lat="46.85302" lon="6.38652">
        <ele>1097.5</ele>
        <time>2024-01-10T16:36:20Z</time>
      </trkpt>
      <trkpt lat="46.85285" lon="6.38667">
        <ele>1096.6</ele>
        <time>2024-01-10T16:36:28Z</time>
      </trkpt>
      <trkpt lat="46.85269" lon="6.38679">
        <ele>1095.8</ele>
        <time>2024-01-10T16:36:34Z</time>
      </trkpt>
      <trkpt lat="46.85255" lon="6.38696">
        <ele>1095.1</ele>
        <time>2024-01-10T16:36:41Z</time>
      </trkpt>
      <trkpt lat="46.85244" lon="6.3872">
        <ele>1094.5</ele>
        <time>2024-01-10T16:36:47Z</time>
      </trkpt>
      <trkpt lat="46.85231" lon="6.38744">
        <ele>1094</ele>
        <time>2024-01-10T16:36:53Z</time>
      </trkpt>
      <trkpt lat="46.85221" lon="6.3877">
        <ele>1093.5</ele>
        <time>2024-01-10T16:37:00Z</time>
      </trkpt>
      <trkpt lat="46.85208" lon="6.38791">
        <ele>1092.9</ele>
        <time>2024-01-10T16:37:07Z</time>
      </trkpt>
      <trkpt lat="46.85192" lon="6.38807">
        <ele>1092</ele>
        <time>2024-01-10T16:37:14Z</time>
      </trkpt>
      <trkpt lat="46.85176" lon="6.3882">
        <ele>1090.8</ele>
        <time>2024-01-10T16:37:20Z</time>
      </trkpt>
      <trkpt lat="46.8516" lon="6.38836">
        <ele>1089.5</ele>
        <time>2024-01-10T16:37:26Z</time>
      </trkpt>
      <trkpt lat="46.85147" lon="6.38859">
        <ele>1088.7</ele>
        <time>2024-01-10T16:37:33Z</time>
      </trkpt>
      <trkpt lat="46.85134" lon="6.3888">
        <ele>1088.5</ele>
        <time>2024-01-10T16:37:40Z</time>
      </trkpt>
      <trkpt lat="46.85119" lon="6.38897">
        <ele>1088.5</ele>
        <time>2024-01-10T16:37:47Z</time>
      </trkpt>
      <trkpt lat="46.85106" lon="6.38919">
        <ele>1088.4</ele>
        <time>2024-01-10T16:37:55Z</time>
      </trkpt>
      <trkpt lat="46.85095" lon="6.38943">
        <ele>1087.8</ele>
        <time>2024-01-10T16:38:04Z</time>
      </trkpt>
      <trkpt lat="46.85077" lon="6.38952">
        <ele>1086.5</ele>
        <time>2024-01-10T16:38:10Z</time>
      </trkpt>
      <trkpt lat="46.85059" lon="6.38956">
        <ele>1085.4</ele>
        <time>2024-01-10T16:38:16Z</time>
      </trkpt>
      <trkpt lat="46.8504" lon="6.38963">
        <ele>1084.1</ele>
        <time>2024-01-10T16:38:24Z</time>
      </trkpt>
      <trkpt lat="46.85023" lon="6.38974">
        <ele>1082.7</ele>
        <time>2024-01-10T16:38:31Z</time>
      </trkpt>
      <trkpt lat="46.85006" lon="6.38985">
        <ele>1081.8</ele>
        <time>2024-01-10T16:38:38Z</time>
      </trkpt>
      <trkpt lat="46.8499" lon="6.39001">
        <ele>1081.3</ele>
        <time>2024-01-10T16:38:46Z</time>
      </trkpt>
      <trkpt lat="46.84974" lon="6.39016">
        <ele>1081.2</ele>
        <time>2024-01-10T16:38:56Z</time>
      </trkpt>
      <trkpt lat="46.84959" lon="6.39034">
        <ele>1081.4</ele>
        <time>2024-01-10T16:39:04Z</time>
      </trkpt>
      <trkpt lat="46.84945" lon="6.39049">
        <ele>1081.9</ele>
        <time>2024-01-10T16:39:12Z</time>
      </trkpt>
      <trkpt lat="46.84929" lon="6.39064">
        <ele>1082.6</ele>
        <time>2024-01-10T16:39:21Z</time>
      </trkpt>
      <trkpt lat="46.84913" lon="6.3908">
        <ele>1083.6</ele>
        <time>2024-01-10T16:39:31Z</time>
      </trkpt>
      <trkpt lat="46.84896" lon="6.39093">
        <ele>1084.6</ele>
        <time>2024-01-10T16:39:42Z</time>
      </trkpt>
      <trkpt lat="46.84879" lon="6.39104">
        <ele>1085.5</ele>
        <time>2024-01-10T16:39:51Z</time>
      </trkpt>
      <trkpt lat="46.84861" lon="6.39114">
        <ele>1086.3</ele>
        <time>2024-01-10T16:40:00Z</time>
      </trkpt>
      <trkpt lat="46.84843" lon="6.39128">
        <ele>1086.8</ele>
        <time>2024-01-10T16:40:09Z</time>
      </trkpt>
      <trkpt lat="46.84826" lon="6.39143">
        <ele>1086.9</ele>
        <time>2024-01-10T16:40:17Z</time>
      </trkpt>
      <trkpt lat="46.84808" lon="6.39154">
        <ele>1086.7</ele>
        <time>2024-01-10T16:40:24Z</time>
      </trkpt>
      <trkpt lat="46.8479" lon="6.39158">
        <ele>1086.1</ele>
        <time>2024-01-10T16:40:30Z</time>
      </trkpt>
      <trkpt lat="46.84772" lon="6.39155">
        <ele>1085.4</ele>
        <time>2024-01-10T16:40:36Z</time>
      </trkpt>
      <trkpt lat="46.84751" lon="6.39153">
        <ele>1084.2</ele>
        <time>2024-01-10T16:40:43Z</time>
      </trkpt>
      <trkpt lat="46.84731" lon="6.39152">
        <ele>1083.2</ele>
        <time>2024-01-10T16:40:49Z</time>
      </trkpt>
      <trkpt lat="46.84712" lon="6.39156">
        <ele>1082.4</ele>
        <time>2024-01-10T16:40:55Z</time>
      </trkpt>
      <trkpt lat="46.84695" lon="6.3917">
        <ele>1082</ele>
        <time>2024-01-10T16:41:01Z</time>
      </trkpt>
      <trkpt lat="46.8468" lon="6.39188">
        <ele>1081.9</ele>
        <time>2024-01-10T16:41:08Z</time>
      </trkpt>
      <trkpt lat="46.84666" lon="6.39205">
        <ele>1081.8</ele>
        <time>2024-01-10T16:41:15Z</time>
      </trkpt>
      <trkpt lat="46.84652" lon="6.39221">
        <ele>1081.7</ele>
        <time>2024-01-10T16:41:21Z</time>
      </trkpt>
      <trkpt lat="46.84636" lon="6.39241">
        <ele>1081.7</ele>
        <time>2024-01-10T16:41:27Z</time>
      </trkpt>
      <trkpt lat="46.84623" lon="6.3926">
        <ele>1082</ele>
        <time>2024-01-10T16:41:33Z</time>
      </trkpt>
      <trkpt lat="46.8461" lon="6.39281">
        <ele>1082.8</ele>
        <time>2024-01-10T16:41:41Z</time>
      </trkpt>
      <trkpt lat="46.84599" lon="6.39303">
        <ele>1083.6</ele>
        <time>2024-01-10T16:41:48Z</time>
      </trkpt>
      <trkpt lat="46.84588" lon="6.39325">
        <ele>1084.1</ele>
        <time>2024-01-10T16:41:55Z</time>
      </trkpt>
      <trkpt lat="46.8458" lon="6.39351">
        <ele>1084.4</ele>
        <time>2024-01-10T16:42:02Z</time>
      </trkpt>
      <trkpt lat="46.84569" lon="6.39376">
        <ele>1084.6</ele>
        <time>2024-01-10T16:42:09Z</time>
      </trkpt>
      <trkpt lat="46.84561" lon="6.39401">
        <ele>1085</ele>
        <time>2024-01-10T16:42:16Z</time>
      </trkpt>
      <trkpt lat="46.84559" lon="6.39431">
        <ele>1085.7</ele>
        <time>2024-01-10T16:42:25Z</time>
      </trkpt>
      <trkpt lat="46.84558" lon="6.39459">
        <ele>1086.3</ele>
        <time>2024-01-10T16:42:33Z</time>
      </trkpt>
      <trkpt lat="46.84552" lon="6.39485">
        <ele>1086.9</ele>
        <time>2024-01-10T16:42:41Z</time>
      </trkpt>
      <trkpt lat="46.84542" lon="6.3951">
        <ele>1087.4</ele>
        <time>2024-01-10T16:42:50Z</time>
      </trkpt>
      <trkpt lat="46.84538" lon="6.39538">
        <ele>1087.4</ele>
        <time>2024-01-10T16:42:59Z</time>
      </trkpt>
      <trkpt lat="46.8452" lon="6.39545">
        <ele>1086.9</ele>
        <time>2024-01-10T16:43:07Z</time>
      </trkpt>
      <trkpt lat="46.84501" lon="6.39541">
        <ele>1086.5</ele>
        <time>2024-01-10T16:43:15Z</time>
      </trkpt>
      <trkpt lat="46.84499" lon="6.39539">
        <ele>1086.5</ele>
        <time>2024-01-10T16:43:18Z</time>
      </trkpt>
      <trkpt lat="46.84501" lon="6.39538">
        <ele>1086.4</ele>
        <time>2024-01-10T16:43:20Z</time>
      </trkpt>
      <trkpt lat="46.84506" lon="6.39539">
        <ele>1086.3</ele>
        <time>2024-01-10T16:43:23Z</time>
      </trkpt>
      <trkpt lat="46.84506" lon="6.39535">
        <ele>1086.3</ele>
        <time>2024-01-10T16:44:00Z</time>
      </trkpt>
      <trkpt lat="46.84486" lon="6.39536">
        <ele>1085.6</ele>
        <time>2024-01-10T16:44:08Z</time>
      </trkpt>
      <trkpt lat="46.84467" lon="6.39536">
        <ele>1084.9</ele>
        <time>2024-01-10T16:44:15Z</time>
      </trkpt>
      <trkpt lat="46.84446" lon="6.39535">
        <ele>1084.2</ele>
        <time>2024-01-10T16:44:22Z</time>
      </trkpt>
      <trkpt lat="46.84427" lon="6.39532">
        <ele>1083.8</ele>
        <time>2024-01-10T16:44:28Z</time>
      </trkpt>
      <trkpt lat="46.84407" lon="6.39528">
        <ele>1083.8</ele>
        <time>2024-01-10T16:44:35Z</time>
      </trkpt>
      <trkpt lat="46.84388" lon="6.39522">
        <ele>1084.1</ele>
        <time>2024-01-10T16:44:42Z</time>
      </trkpt>
      <trkpt lat="46.84369" lon="6.39517">
        <ele>1084.5</ele>
        <time>2024-01-10T16:44:49Z</time>
      </trkpt>
      <trkpt lat="46.84351" lon="6.39511">
        <ele>1085</ele>
        <time>2024-01-10T16:44:56Z</time>
      </trkpt>
      <trkpt lat="46.84332" lon="6.39507">
        <ele>1085.5</ele>
        <time>2024-01-10T16:45:04Z</time>
      </trkpt>
      <trkpt lat="46.84312" lon="6.39503">
        <ele>1086</ele>
        <time>2024-01-10T16:45:13Z</time>
      </trkpt>
      <trkpt lat="46.84293" lon="6.39499">
        <ele>1086.2</ele>
        <time>2024-01-10T16:45:21Z</time>
      </trkpt>
      <trkpt lat="46.84275" lon="6.39497">
        <ele>1086.3</ele>
        <time>2024-01-10T16:45:29Z</time>
      </trkpt>
      <trkpt lat="46.84256" lon="6.39495">
        <ele>1086.2</ele>
        <time>2024-01-10T16:45:36Z</time>
      </trkpt>
      <trkpt lat="46.84236" lon="6.39493">
        <ele>1086</ele>
        <time>2024-01-10T16:45:43Z</time>
      </trkpt>
      <trkpt lat="46.84217" lon="6.39492">
        <ele>1085.5</ele>
        <time>2024-01-10T16:45:50Z</time>
      </trkpt>
      <trkpt lat="46.84199" lon="6.39494">
        <ele>1085</ele>
        <time>2024-01-10T16:45:57Z</time>
      </trkpt>
      <trkpt lat="46.84186" lon="6.39512">
        <ele>1084.8</ele>
        <time>2024-01-10T16:46:03Z</time>
      </trkpt>
      <trkpt lat="46.84166" lon="6.3952">
        <ele>1084.7</ele>
        <time>2024-01-10T16:46:10Z</time>
      </trkpt>
      <trkpt lat="46.8415" lon="6.39531">
        <ele>1084.6</ele>
        <time>2024-01-10T16:46:17Z</time>
      </trkpt>
      <trkpt lat="46.84138" lon="6.39555">
        <ele>1084.3</ele>
        <time>2024-01-10T16:46:24Z</time>
      </trkpt>
      <trkpt lat="46.84123" lon="6.39569">
        <ele>1084.1</ele>
        <time>2024-01-10T16:46:30Z</time>
      </trkpt>
      <trkpt lat="46.84102" lon="6.39571">
        <ele>1083.8</ele>
        <time>2024-01-10T16:46:37Z</time>
      </trkpt>
      <trkpt lat="46.84085" lon="6.39567">
        <ele>1083.5</ele>
        <time>2024-01-10T16:46:43Z</time>
      </trkpt>
      <trkpt lat="46.84066" lon="6.3957">
        <ele>1083.2</ele>
        <time>2024-01-10T16:46:50Z</time>
      </trkpt>
      <trkpt lat="46.84058" lon="6.39594">
        <ele>1082.7</ele>
        <time>2024-01-10T16:46:56Z</time>
      </trkpt>
      <trkpt lat="46.84046" lon="6.39617">
        <ele>1082.3</ele>
        <time>2024-01-10T16:47:03Z</time>
      </trkpt>
      <trkpt lat="46.84029" lon="6.39629">
        <ele>1081.9</ele>
        <time>2024-01-10T16:47:09Z</time>
      </trkpt>
      <trkpt lat="46.84012" lon="6.39638">
        <ele>1081.5</ele>
        <time>2024-01-10T16:47:15Z</time>
      </trkpt>
      <trkpt lat="46.83992" lon="6.39647">
        <ele>1081.3</ele>
        <time>2024-01-10T16:47:22Z</time>
      </trkpt>
      <trkpt lat="46.83971" lon="6.39642">
        <ele>1081.1</ele>
        <time>2024-01-10T16:47:29Z</time>
      </trkpt>
      <trkpt lat="46.83957" lon="6.39626">
        <ele>1080.9</ele>
        <time>2024-01-10T16:47:34Z</time>
      </trkpt>
      <trkpt lat="46.83948" lon="6.39603">
        <ele>1080.9</ele>
        <time>2024-01-10T16:47:39Z</time>
      </trkpt>
      <trkpt lat="46.83946" lon="6.39601">
        <ele>1080.7</ele>
        <time>2024-01-10T16:47:40Z</time>
      </trkpt>
      <trkpt lat="46.83926" lon="6.39606">
        <ele>1080.8</ele>
        <time>2024-01-10T16:47:47Z</time>
      </trkpt>
      <trkpt lat="46.8392" lon="6.39601">
        <ele>1080.9</ele>
        <time>2024-01-10T16:47:53Z</time>
      </trkpt>
      <trkpt lat="46.83917" lon="6.396">
        <ele>1080.8</ele>
        <time>2024-01-10T16:47:56Z</time>
      </trkpt>
      <trkpt lat="46.83897" lon="6.39605">
        <ele>1080.6</ele>
        <time>2024-01-10T16:48:03Z</time>
      </trkpt>
      <trkpt lat="46.83879" lon="6.39606">
        <ele>1080.5</ele>
        <time>2024-01-10T16:48:10Z</time>
      </trkpt>
      <trkpt lat="46.83862" lon="6.39619">
        <ele>1080.6</ele>
        <time>2024-01-10T16:48:16Z</time>
      </trkpt>
      <trkpt lat="46.83846" lon="6.3963">
        <ele>1081</ele>
        <time>2024-01-10T16:48:22Z</time>
      </trkpt>
      <trkpt lat="46.83827" lon="6.39643">
        <ele>1081.2</ele>
        <time>2024-01-10T16:48:29Z</time>
      </trkpt>
      <trkpt lat="46.8381" lon="6.39655">
        <ele>1081.1</ele>
        <time>2024-01-10T16:48:35Z</time>
      </trkpt>
      <trkpt lat="46.83794" lon="6.3967">
        <ele>1080.9</ele>
        <time>2024-01-10T16:48:41Z</time>
      </trkpt>
      <trkpt lat="46.83778" lon="6.39687">
        <ele>1080.8</ele>
        <time>2024-01-10T16:48:47Z</time>
      </trkpt>
      <trkpt lat="46.83762" lon="6.39702">
        <ele>1080.6</ele>
        <time>2024-01-10T16:48:53Z</time>
      </trkpt>
      <trkpt lat="46.83746" lon="6.39717">
        <ele>1080.3</ele>
        <time>2024-01-10T16:48:59Z</time>
      </trkpt>
      <trkpt lat="46.83731" lon="6.39732">
        <ele>1080.1</ele>
        <time>2024-01-10T16:49:05Z</time>
      </trkpt>
      <trkpt lat="46.83716" lon="6.39747">
        <ele>1080.2</ele>
        <time>2024-01-10T16:49:11Z</time>
      </trkpt>
      <trkpt lat="46.837" lon="6.39759">
        <ele>1080.3</ele>
        <time>2024-01-10T16:49:17Z</time>
      </trkpt>
      <trkpt lat="46.83682" lon="6.39771">
        <ele>1080.4</ele>
        <time>2024-01-10T16:49:24Z</time>
      </trkpt>
      <trkpt lat="46.83666" lon="6.39786">
        <ele>1080.5</ele>
        <time>2024-01-10T16:49:31Z</time>
      </trkpt>
      <trkpt lat="46.83649" lon="6.39801">
        <ele>1080.6</ele>
        <time>2024-01-10T16:49:38Z</time>
      </trkpt>
      <trkpt lat="46.83633" lon="6.39819">
        <ele>1080.8</ele>
        <time>2024-01-10T16:49:45Z</time>
      </trkpt>
      <trkpt lat="46.8362" lon="6.39839">
        <ele>1081.1</ele>
        <time>2024-01-10T16:49:51Z</time>
      </trkpt>
      <trkpt lat="46.83608" lon="6.39859">
        <ele>1081.3</ele>
        <time>2024-01-10T16:49:57Z</time>
      </trkpt>
      <trkpt lat="46.83597" lon="6.39879">
        <ele>1081.6</ele>
        <time>2024-01-10T16:50:03Z</time>
      </trkpt>
      <trkpt lat="46.83582" lon="6.39897">
        <ele>1082</ele>
        <time>2024-01-10T16:50:10Z</time>
      </trkpt>
      <trkpt lat="46.8357" lon="6.39919">
        <ele>1082.4</ele>
        <time>2024-01-10T16:50:17Z</time>
      </trkpt>
      <trkpt lat="46.83558" lon="6.39944">
        <ele>1082.4</ele>
        <time>2024-01-10T16:50:24Z</time>
      </trkpt>
      <trkpt lat="46.83543" lon="6.39962">
        <ele>1082.7</ele>
        <time>2024-01-10T16:50:32Z</time>
      </trkpt>
      <trkpt lat="46.83531" lon="6.39984">
        <ele>1083</ele>
        <time>2024-01-10T16:50:41Z</time>
      </trkpt>
      <trkpt lat="46.83525" lon="6.40011">
        <ele>1083.3</ele>
        <time>2024-01-10T16:50:48Z</time>
      </trkpt>
      <trkpt lat="46.83518" lon="6.40028">
        <ele>1083.4</ele>
        <time>2024-01-10T16:50:53Z</time>
      </trkpt>
      <trkpt lat="46.83513" lon="6.40029">
        <ele>1085.1</ele>
        <time>2024-01-10T16:50:55Z</time>
      </trkpt>
      <trkpt lat="46.83494" lon="6.40019">
        <ele>1085.8</ele>
        <time>2024-01-10T16:51:03Z</time>
      </trkpt>
      <trkpt lat="46.83478" lon="6.40011">
        <ele>1086.5</ele>
        <time>2024-01-10T16:51:13Z</time>
      </trkpt>
      <trkpt lat="46.83476" lon="6.40017">
        <ele>1086.8</ele>
        <time>2024-01-10T16:51:16Z</time>
      </trkpt>
      <trkpt lat="46.83459" lon="6.40009">
        <ele>1086.8</ele>
        <time>2024-01-10T16:51:24Z</time>
      </trkpt>
      <trkpt lat="46.83454" lon="6.40004">
        <ele>1086.8</ele>
        <time>2024-01-10T16:51:29Z</time>
      </trkpt>
      <trkpt lat="46.83451" lon="6.39999">
        <ele>1086.8</ele>
        <time>2024-01-10T16:51:35Z</time>
      </trkpt>
      <trkpt lat="46.83459" lon="6.39992">
        <ele>1086.8</ele>
        <time>2024-01-10T16:51:49Z</time>
      </trkpt>
    </trkseg>
  </trk>
</gpx>